Igloo — FAC2378 — position and weather

sailwx.info

Track history (hours):
 
Tides and Currents Weather Stations Pressure Air Temp Water Temp Dewpoint Dewpoint Depression Visibility Wind Speed Wind Dir Waves Ship Positions

Igloo

Last reported at 2018-Jun-20 09:30 UTC. Time now 2018-Jun-20 09:31 UTC.
Position N 38°46' W 009°34'.

Length 12 m.

Type: Sailing vessel. MMSI: 227264430.

Date/timePositionNaut miles runAvg speedWind from/ knotsBaromVisibWave heightAir tempDewpointWater temp
2018-Jun-20 09:30N 38°46' W 009°34'1 2.0
2018-Jun-20 08:59N 38°47' W 009°34'1 1.4
2018-Jun-20 08:26N 38°46' W 009°34'4 9.5
2018-Jun-20 07:58N 38°51' W 009°35'2 3.5
2018-Jun-20 07:30N 38°52' W 009°34'3 6.5
2018-Jun-20 06:59N 38°56' W 009°34'3 6.5
2018-Jun-20 06:30N 38°59' W 009°33'3 6.7
2018-Jun-20 06:00N 39°02' W 009°32'3 6.6
2018-Jun-20 05:30N 39°05' W 009°32'  
Track history (hours):
 
Tides and Currents Weather Stations Pressure Air Temp Water Temp Dewpoint Dewpoint Depression Visibility Wind Speed Wind Dir Waves Ship Positions

Igloo

Last reported at 2018-Jun-20 09:30 UTC. Time now 2018-Jun-20 09:31 UTC.
Position N 38°46' W 009°34'.

Length 12 m.

Type: Sailing vessel. MMSI: 227264430.

Date/timePositionNaut miles runAvg speedWind from/ knotsBaromVisibWave heightAir tempDewpointWater temp
2018-Jun-20 09:30N 38°46' W 009°34'1 2.0
2018-Jun-20 08:59N 38°47' W 009°34'1 1.4
2018-Jun-20 08:26N 38°46' W 009°34'4 9.5
2018-Jun-20 07:58N 38°51' W 009°35'2 3.5
2018-Jun-20 07:30N 38°52' W 009°34'3 6.5
2018-Jun-20 06:59N 38°56' W 009°34'3 6.5
2018-Jun-20 06:30N 38°59' W 009°33'3 6.7
2018-Jun-20 06:00N 39°02' W 009°32'3 6.6
2018-Jun-20 05:30N 39°05' W 009°32'  

Dump ship's entire track history